createdAt,value
2023-03-01T00:00:47.578Z,4.58
2023-03-01T00:03:20.246Z,4.61
2023-03-01T00:05:52.916Z,4.63
2023-03-01T00:08:25.588Z,4.63
2023-03-01T00:11:08.315Z,4.65
2023-03-01T00:13:41.203Z,4.66
2023-03-01T00:16:15.656Z,4.67
2023-03-01T00:18:48.353Z,4.69
2023-03-01T00:21:22.130Z,4.72
2023-03-01T00:23:55.618Z,4.72
2023-03-01T00:26:30.060Z,4.74
2023-03-01T00:29:02.983Z,4.75
2023-03-01T00:31:35.855Z,4.77
2023-03-01T00:34:09.011Z,4.78
2023-03-01T00:36:41.743Z,4.79
2023-03-01T00:39:16.135Z,4.81
2023-03-01T00:41:50.714Z,4.80
2023-03-01T00:44:23.501Z,4.84
2023-03-01T00:46:56.237Z,4.85
2023-03-01T00:49:29.636Z,4.86
2023-03-01T00:52:02.362Z,4.89
2023-03-01T00:54:35.071Z,4.89
2023-03-01T00:57:09.057Z,4.90
2023-03-01T00:59:41.725Z,4.91
2023-03-01T01:02:14.274Z,4.91
2023-03-01T01:04:46.998Z,4.91
2023-03-01T01:07:21.089Z,4.92
2023-03-01T01:09:53.804Z,4.94
2023-03-01T01:12:27.855Z,4.93
2023-03-01T01:15:00.835Z,4.93
2023-03-01T01:17:33.941Z,4.96
2023-03-01T01:20:07.197Z,4.95
2023-03-01T01:22:39.828Z,4.94
2023-03-01T01:25:12.730Z,4.93
2023-03-01T01:27:46.764Z,4.93
2023-03-01T01:30:19.583Z,4.94
2023-03-01T01:32:52.235Z,4.94
2023-03-01T01:35:24.932Z,4.96
2023-03-01T01:37:57.651Z,4.96
2023-03-01T01:40:30.378Z,4.96
2023-03-01T01:43:04.408Z,4.99
2023-03-01T01:45:37.593Z,5.01
2023-03-01T01:48:14.666Z,5.02
2023-03-01T01:50:48.787Z,5.02
2023-03-01T01:53:22.142Z,5.02
2023-03-01T01:55:58.155Z,5.05
2023-03-01T01:58:32.683Z,5.06
2023-03-01T02:01:06.051Z,5.05
2023-03-01T02:03:43.329Z,5.07
2023-03-01T02:06:20.221Z,5.07
2023-03-01T02:08:54.128Z,5.09
2023-03-01T02:11:27.826Z,5.09
2023-03-01T02:14:02.314Z,5.12
2023-03-01T02:16:35.567Z,5.12
2023-03-01T02:19:09.610Z,5.13
2023-03-01T02:21:46.377Z,5.13
2023-03-01T02:24:24.908Z,5.12
2023-03-01T02:26:59.989Z,5.14
2023-03-01T02:29:34.182Z,5.15
2023-03-01T02:32:07.204Z,5.16
2023-03-01T02:34:40.720Z,5.16
2023-03-01T02:37:16.030Z,5.16
2023-03-01T02:39:50.302Z,5.18
2023-03-01T02:42:27.269Z,5.16
2023-03-01T02:45:01.661Z,5.17
2023-03-01T02:47:34.854Z,5.17
2023-03-01T02:50:13.246Z,5.19
2023-03-01T02:52:47.981Z,5.19
2023-03-01T02:55:20.685Z,5.21
2023-03-01T02:57:53.674Z,5.21
2023-03-01T03:00:30.653Z,5.21
2023-03-01T03:03:03.558Z,5.24
2023-03-01T03:05:37.246Z,5.24
2023-03-01T03:08:10.291Z,5.24
2023-03-01T03:10:43.954Z,5.26
2023-03-01T03:13:18.219Z,5.27
2023-03-01T03:15:52.319Z,5.28
2023-03-01T03:18:26.942Z,5.28
2023-03-01T03:20:59.952Z,5.29
2023-03-01T03:23:32.625Z,5.30
2023-03-01T03:26:05.913Z,5.34
2023-03-01T03:28:40.965Z,5.33
2023-03-01T03:31:15.160Z,5.32
2023-03-01T03:33:47.940Z,5.33
2023-03-01T03:36:21.518Z,5.35
2023-03-01T03:38:54.258Z,5.36
2023-03-01T03:41:28.179Z,5.37
2023-03-01T03:44:01.590Z,5.38
2023-03-01T03:46:36.532Z,5.37
2023-03-01T03:49:09.415Z,5.38
2023-03-01T03:51:42.113Z,5.39
2023-03-01T03:54:14.809Z,5.39
2023-03-01T03:56:47.486Z,5.40
2023-03-01T03:59:20.160Z,5.42
2023-03-01T04:01:54.219Z,5.42
2023-03-01T04:04:26.969Z,5.42
2023-03-01T04:06:59.613Z,5.42
2023-03-01T04:09:32.342Z,5.42
2023-03-01T04:12:04.989Z,5.43
2023-03-01T04:14:37.695Z,5.45
2023-03-01T04:17:11.781Z,5.45
2023-03-01T04:19:45.062Z,5.46
2023-03-01T04:22:19.390Z,5.46
2023-03-01T04:24:52.144Z,5.49
2023-03-01T04:27:24.825Z,5.50
2023-03-01T04:29:57.617Z,5.51
2023-03-01T04:32:32.741Z,5.50
2023-03-01T04:35:05.746Z,5.50
2023-03-01T04:37:38.438Z,5.52
2023-03-01T04:40:17.267Z,5.51
2023-03-01T04:42:50.008Z,5.53
2023-03-01T04:45:22.859Z,5.53
2023-03-01T04:47:59.238Z,5.54
2023-03-01T04:50:32.000Z,5.55
2023-03-01T04:53:04.710Z,5.56
2023-03-01T04:55:37.400Z,5.57
2023-03-01T04:58:10.156Z,5.59
2023-03-01T05:00:42.817Z,5.61
2023-03-01T05:03:19.125Z,5.62
2023-03-01T05:05:53.281Z,5.61
2023-03-01T05:08:25.974Z,5.66
2023-03-01T05:10:58.648Z,5.66
2023-03-01T05:13:31.470Z,5.68
2023-03-01T05:16:05.184Z,5.69
2023-03-01T05:18:39.538Z,5.71
2023-03-01T05:21:13.115Z,5.72
2023-03-01T05:23:45.918Z,5.73
2023-03-01T05:26:28.173Z,5.74
2023-03-01T05:29:02.036Z,5.78
2023-03-01T05:31:34.821Z,5.78
2023-03-01T05:34:08.925Z,5.79
2023-03-01T05:36:41.619Z,5.78
2023-03-01T05:39:14.284Z,5.79
2023-03-01T05:41:46.955Z,5.78
2023-03-01T05:44:19.674Z,5.79
2023-03-01T05:46:52.526Z,5.76
2023-03-01T05:49:26.988Z,5.75
2023-03-01T05:51:59.660Z,5.76
2023-03-01T05:54:32.431Z,5.75
2023-03-01T05:57:05.091Z,5.75
2023-03-01T05:59:37.853Z,5.76
2023-03-01T06:02:10.547Z,5.76
2023-03-01T06:04:44.806Z,5.77
2023-03-01T06:07:17.653Z,5.79
2023-03-01T06:09:50.312Z,5.78
2023-03-01T06:12:22.994Z,5.79
2023-03-01T06:14:55.657Z,5.79
2023-03-01T06:17:28.524Z,5.78
2023-03-01T06:20:02.694Z,5.77
2023-03-01T06:22:35.429Z,5.77
2023-03-01T06:25:08.890Z,5.75
2023-03-01T06:27:41.952Z,5.73
2023-03-01T06:30:16.140Z,5.73
2023-03-01T06:32:49.581Z,5.70
2023-03-01T06:35:23.747Z,5.71
2023-03-01T06:37:56.417Z,5.69
2023-03-01T06:40:29.176Z,5.66
2023-03-01T06:43:01.946Z,5.66
2023-03-01T06:45:34.608Z,5.65
2023-03-01T06:48:08.368Z,5.65
2023-03-01T06:50:42.555Z,5.65
2023-03-01T06:53:15.278Z,5.65
2023-03-01T06:55:47.925Z,5.67
2023-03-01T06:58:20.612Z,5.68
2023-03-01T07:00:53.290Z,5.69
2023-03-01T07:03:26.160Z,5.71
2023-03-01T07:06:00.239Z,5.74
2023-03-01T07:08:32.883Z,5.74
2023-03-01T07:11:06.779Z,5.75
2023-03-01T07:13:39.485Z,5.76
2023-03-01T07:16:12.188Z,5.78
2023-03-01T07:18:44.879Z,5.78
2023-03-01T07:21:19.030Z,5.77
2023-03-01T07:23:51.730Z,5.79
2023-03-01T07:26:26.183Z,5.79
2023-03-01T07:29:00.921Z,5.80
2023-03-01T07:31:33.865Z,5.78
2023-03-01T07:34:06.526Z,5.80
2023-03-01T07:36:44.120Z,5.80
2023-03-01T07:39:18.611Z,5.78
2023-03-01T07:41:52.550Z,5.76
2023-03-01T07:44:25.326Z,5.75
2023-03-01T07:46:59.276Z,5.74
2023-03-01T07:49:34.316Z,5.73
2023-03-01T07:52:08.495Z,5.73
2023-03-01T07:54:41.643Z,5.73
2023-03-01T07:57:14.542Z,5.72
2023-03-01T07:59:47.707Z,5.74
2023-03-01T08:02:20.574Z,5.75
2023-03-01T08:04:53.290Z,5.74
2023-03-01T08:07:27.435Z,5.77
2023-03-01T08:10:00.104Z,5.79
2023-03-01T08:12:33.192Z,5.82
2023-03-01T08:15:06.288Z,5.84
2023-03-01T08:17:39.004Z,5.88
2023-03-01T08:20:13.720Z,5.90
2023-03-01T08:22:47.985Z,5.94
2023-03-01T08:25:20.646Z,5.98
2023-03-01T08:27:53.418Z,6.02
2023-03-01T08:30:26.060Z,6.03
2023-03-01T08:32:58.795Z,6.06
2023-03-01T08:35:31.547Z,6.09
2023-03-01T08:38:05.601Z,6.10
2023-03-01T08:40:38.277Z,6.14
2023-03-01T08:43:10.977Z,6.17
2023-03-01T08:45:43.664Z,6.19
2023-03-01T08:48:16.384Z,6.22
2023-03-01T08:50:49.128Z,6.26
2023-03-01T08:53:23.431Z,6.28
2023-03-01T08:55:56.102Z,6.30
2023-03-01T08:58:28.773Z,6.31
2023-03-01T09:01:01.501Z,6.35
2023-03-01T09:03:34.187Z,6.39
2023-03-01T09:06:08.475Z,6.43
2023-03-01T09:08:43.491Z,6.44
2023-03-01T09:11:17.747Z,6.44
2023-03-01T09:13:50.924Z,6.47
2023-03-01T09:16:24.159Z,6.48
2023-03-01T09:18:57.212Z,6.50
2023-03-01T09:21:40.163Z,6.50
2023-03-01T09:24:16.039Z,6.50
2023-03-01T09:26:50.785Z,6.51
2023-03-01T09:29:24.794Z,6.49
2023-03-01T09:31:57.495Z,6.51
2023-03-01T09:34:30.562Z,6.52
2023-03-01T09:37:03.539Z,6.54
2023-03-01T09:39:37.969Z,6.56
2023-03-01T09:42:13.384Z,6.59
2023-03-01T09:44:48.341Z,6.63
2023-03-01T09:47:22.341Z,6.63
2023-03-01T09:49:59.743Z,6.61
2023-03-01T09:52:35.912Z,6.60
2023-03-01T09:55:13.441Z,6.59
2023-03-01T09:57:49.889Z,6.58
2023-03-01T10:00:27.224Z,6.59
2023-03-01T10:03:01.709Z,6.60
2023-03-01T10:05:38.997Z,6.64
2023-03-01T10:08:27.182Z,6.66
2023-03-01T10:11:01.667Z,6.69
2023-03-01T10:13:39.560Z,6.70
2023-03-01T10:16:15.330Z,6.74
2023-03-01T10:18:51.113Z,6.75
2023-03-01T10:21:24.275Z,6.78
2023-03-01T10:23:59.332Z,6.81
2023-03-01T10:26:44.309Z,6.84
2023-03-01T10:29:17.020Z,6.89
2023-03-01T10:31:50.712Z,6.90
2023-03-01T10:34:29.065Z,6.93
2023-03-01T10:37:03.747Z,6.99
2023-03-01T10:39:36.475Z,6.96
2023-03-01T10:42:22.225Z,6.98
2023-03-01T10:44:54.840Z,6.98
2023-03-01T10:47:28.611Z,6.99
2023-03-01T10:50:02.632Z,6.98
2023-03-01T10:52:36.695Z,6.98
2023-03-01T10:55:25.413Z,7.00
2023-03-01T10:58:20.175Z,7.01
2023-03-01T11:00:53.949Z,7.02
2023-03-01T11:03:27.596Z,7.02
2023-03-01T11:06:01.671Z,7.04
2023-03-01T11:08:36.883Z,7.06
2023-03-01T11:11:19.278Z,7.08
2023-03-01T11:13:55.223Z,7.06
2023-03-01T11:16:30.093Z,7.05
2023-03-01T11:19:18.232Z,7.05
2023-03-01T11:21:57.556Z,7.05
2023-03-01T11:24:37.221Z,7.04
2023-03-01T11:27:17.664Z,7.03
2023-03-01T11:29:55.005Z,7.03
2023-03-01T11:32:30.413Z,7.04
2023-03-01T11:35:05.198Z,7.06
2023-03-01T11:37:40.082Z,7.09
2023-03-01T11:40:14.705Z,7.10
2023-03-01T11:43:02.400Z,7.14
2023-03-01T11:45:42.693Z,7.16
2023-03-01T11:48:49.532Z,7.14
2023-03-01T11:51:27.230Z,7.11
2023-03-01T11:54:06.016Z,7.08
2023-03-01T11:56:41.124Z,7.01
2023-03-01T11:59:31.001Z,6.98
2023-03-01T12:02:22.071Z,6.93
2023-03-01T12:05:27.733Z,6.89
2023-03-01T12:08:03.195Z,6.81
2023-03-01T12:10:39.330Z,6.79
2023-03-01T12:13:44.645Z,6.76
2023-03-01T12:16:38.434Z,6.75
2023-03-01T12:19:34.945Z,6.75
2023-03-01T12:22:15.144Z,6.75
2023-03-01T12:25:04.631Z,6.75
2023-03-01T12:27:52.458Z,6.77
2023-03-01T12:30:30.492Z,6.77
2023-03-01T12:33:12.904Z,6.75
2023-03-01T12:35:56.439Z,6.75
2023-03-01T12:38:36.305Z,6.75
2023-03-01T12:41:23.801Z,6.76
2023-03-01T12:44:06.997Z,6.77
2023-03-01T12:46:53.713Z,6.78
2023-03-01T12:49:29.026Z,6.77
2023-03-01T12:52:06.340Z,6.76
2023-03-01T12:54:39.302Z,6.76
2023-03-01T12:57:17.103Z,6.76
2023-03-01T12:59:55.790Z,6.75
2023-03-01T13:02:33.206Z,6.76
2023-03-01T13:05:19.232Z,6.80
2023-03-01T13:07:57.290Z,6.83
2023-03-01T13:10:33.700Z,6.85
2023-03-01T13:13:14.895Z,6.85
2023-03-01T13:15:48.804Z,6.89
2023-03-01T13:18:34.498Z,6.89
2023-03-01T13:21:07.217Z,6.89
2023-03-01T13:23:42.614Z,6.91
2023-03-01T13:26:16.612Z,6.92
2023-03-01T13:28:53.926Z,6.92
2023-03-01T13:31:44.192Z,6.95
2023-03-01T13:34:31.768Z,6.96
2023-03-01T13:37:10.839Z,6.99
2023-03-01T13:39:44.961Z,7.00
2023-03-01T13:42:35.389Z,7.02
2023-03-01T13:45:17.730Z,7.00
2023-03-01T13:47:52.519Z,7.00
2023-03-01T13:50:26.671Z,7.02
2023-03-01T13:53:01.527Z,6.99
2023-03-01T13:55:38.928Z,6.99
2023-03-01T13:58:20.846Z,6.98
2023-03-01T14:01:00.674Z,6.97
2023-03-01T14:03:34.424Z,6.96
2023-03-01T14:06:15.190Z,6.95
2023-03-01T14:08:49.775Z,6.98
2023-03-01T14:11:40.330Z,6.97
2023-03-01T14:14:21.969Z,6.98
2023-03-01T14:17:00.166Z,7.01
2023-03-01T14:19:34.417Z,7.03
2023-03-01T14:22:15.479Z,7.03
2023-03-01T14:24:50.189Z,7.04
2023-03-01T14:27:22.871Z,7.06
2023-03-01T14:30:00.738Z,7.05
2023-03-01T14:32:33.785Z,7.07
2023-03-01T14:35:21.590Z,7.05
2023-03-01T14:37:54.332Z,7.03
2023-03-01T14:40:29.496Z,7.01
2023-03-01T14:43:04.032Z,6.97
2023-03-01T14:45:38.271Z,6.96
2023-03-01T14:48:11.075Z,6.92
2023-03-01T14:50:44.478Z,6.88
2023-03-01T14:53:19.604Z,6.85
2023-03-01T14:55:53.898Z,6.81
2023-03-01T14:58:27.410Z,6.78
2023-03-01T15:01:02.629Z,6.77
2023-03-01T15:03:38.063Z,6.77
2023-03-01T15:06:11.454Z,6.75
2023-03-01T15:08:46.806Z,6.77
2023-03-01T15:11:23.801Z,6.79
2023-03-01T15:13:56.629Z,6.79
2023-03-01T15:16:32.808Z,6.81
2023-03-01T15:19:06.959Z,6.81
2023-03-01T15:21:40.572Z,6.80
2023-03-01T15:24:21.419Z,6.80
2023-03-01T15:26:58.645Z,6.80
2023-03-01T15:29:34.310Z,6.81
2023-03-01T15:32:24.938Z,6.79
2023-03-01T15:34:57.854Z,6.80
2023-03-01T15:37:48.640Z,6.80
2023-03-01T15:40:24.913Z,6.81
2023-03-01T15:42:57.590Z,6.81
2023-03-01T15:45:31.194Z,6.80
2023-03-01T15:48:06.743Z,6.81
2023-03-01T15:50:41.104Z,6.82
2023-03-01T15:53:15.390Z,6.86
2023-03-01T15:55:50.600Z,6.87
2023-03-01T15:58:24.263Z,6.89
2023-03-01T16:01:01.289Z,6.89
2023-03-01T16:03:35.908Z,6.89
2023-03-01T16:06:10.672Z,6.91
2023-03-01T16:08:43.874Z,6.91
2023-03-01T16:11:18.433Z,6.90
2023-03-01T16:13:51.894Z,6.93
2023-03-01T16:16:24.622Z,6.90
2023-03-01T16:18:58.885Z,6.92
2023-03-01T16:21:32.067Z,6.91
2023-03-01T16:24:05.191Z,6.90
2023-03-01T16:26:38.487Z,6.88
2023-03-01T16:29:11.215Z,6.89
2023-03-01T16:31:43.956Z,6.88
2023-03-01T16:34:18.471Z,6.87
2023-03-01T16:36:51.178Z,6.89
2023-03-01T16:39:23.850Z,6.91
2023-03-01T16:41:56.558Z,6.91
2023-03-01T16:44:29.208Z,6.94
2023-03-01T16:47:01.911Z,6.94
2023-03-01T16:49:35.958Z,6.94
2023-03-01T16:52:08.611Z,6.95
2023-03-01T16:54:41.637Z,6.95
2023-03-01T16:57:14.404Z,6.95
2023-03-01T16:59:47.116Z,6.93
2023-03-01T17:02:20.836Z,6.94
2023-03-01T17:04:55.541Z,6.93
2023-03-01T17:07:28.434Z,6.90
2023-03-01T17:10:01.142Z,6.88
2023-03-01T17:12:34.941Z,6.87
2023-03-01T17:15:08.347Z,6.87
2023-03-01T17:17:41.041Z,6.86
2023-03-01T17:20:15.221Z,6.86
2023-03-01T17:22:47.973Z,6.85
2023-03-01T17:25:20.934Z,6.84
2023-03-01T17:27:53.968Z,6.85
2023-03-01T17:30:26.722Z,6.85
2023-03-01T17:32:59.573Z,6.86
2023-03-01T17:35:37.091Z,6.84
2023-03-01T17:38:09.774Z,6.83
2023-03-01T17:40:42.986Z,6.82
2023-03-01T17:43:16.346Z,6.84
2023-03-01T17:45:50.797Z,6.81
2023-03-01T17:48:23.586Z,6.81
2023-03-01T17:50:57.666Z,6.82
2023-03-01T17:53:30.482Z,6.82
2023-03-01T17:56:03.720Z,6.81
2023-03-01T17:58:37.111Z,6.81
2023-03-01T18:01:14.007Z,6.80
2023-03-01T18:03:47.721Z,6.81
2023-03-01T18:06:23.953Z,6.81
2023-03-01T18:08:57.103Z,6.82
2023-03-01T18:11:30.125Z,6.81
2023-03-01T18:14:02.978Z,6.82
2023-03-01T18:16:35.967Z,6.81
2023-03-01T18:19:08.745Z,6.79
2023-03-01T18:21:44.026Z,6.82
2023-03-01T18:24:16.848Z,6.80
2023-03-01T18:26:49.474Z,6.82
2023-03-01T18:29:22.150Z,6.81
2023-03-01T18:31:57.092Z,6.81
2023-03-01T18:34:29.932Z,6.82
2023-03-01T18:37:09.670Z,6.83
2023-03-01T18:39:42.741Z,6.85
2023-03-01T18:42:16.449Z,6.86
2023-03-01T18:44:49.303Z,6.85
2023-03-01T18:47:21.984Z,6.89
2023-03-01T18:49:54.671Z,6.88
2023-03-01T18:52:28.726Z,6.88
2023-03-01T18:55:01.434Z,6.90
2023-03-01T18:57:34.081Z,6.90
2023-03-01T19:00:07.456Z,6.91
2023-03-01T19:02:40.394Z,6.90
2023-03-01T19:05:13.189Z,6.91
2023-03-01T19:07:47.254Z,6.92
2023-03-01T19:10:20.028Z,6.95
2023-03-01T19:12:52.817Z,6.94
2023-03-01T19:15:25.469Z,6.94
2023-03-01T19:17:59.021Z,6.95
2023-03-01T19:20:31.800Z,6.97
2023-03-01T19:23:05.925Z,6.97
2023-03-01T19:25:38.962Z,6.98
2023-03-01T19:28:11.613Z,6.98
2023-03-01T19:30:44.346Z,6.97
2023-03-01T19:33:17.021Z,6.98
2023-03-01T19:35:51.477Z,6.99
2023-03-01T19:38:25.679Z,6.99
2023-03-01T19:40:58.599Z,6.98
2023-03-01T19:43:31.321Z,6.97
2023-03-01T19:46:04.380Z,6.96
2023-03-01T19:48:37.043Z,6.96
2023-03-01T19:51:10.264Z,6.92
2023-03-01T19:53:44.328Z,6.91
2023-03-01T19:56:17.344Z,6.88
2023-03-01T19:58:50.517Z,6.86
2023-03-01T20:01:24.211Z,6.83
2023-03-01T20:03:57.287Z,6.83
2023-03-01T20:06:30.723Z,6.80
2023-03-01T20:09:19.032Z,6.76
2023-03-01T20:11:53.280Z,6.76
2023-03-01T20:14:26.386Z,6.73
2023-03-01T20:16:59.027Z,6.73
2023-03-01T20:19:31.726Z,6.72
2023-03-01T20:22:04.850Z,6.72
2023-03-01T20:24:38.933Z,6.72
2023-03-01T20:27:11.909Z,6.72
2023-03-01T20:29:45.960Z,6.70
2023-03-01T20:32:18.816Z,6.73
2023-03-01T20:34:52.069Z,6.73
2023-03-01T20:37:24.951Z,6.74
2023-03-01T20:39:59.098Z,6.74
2023-03-01T20:42:31.799Z,6.74
2023-03-01T20:45:04.742Z,6.76
2023-03-01T20:47:37.422Z,6.77
2023-03-01T20:50:10.767Z,6.78
2023-03-01T20:52:47.820Z,6.78
2023-03-01T20:55:22.093Z,6.78
2023-03-01T20:57:54.918Z,6.77
2023-03-01T21:00:27.648Z,6.79
2023-03-01T21:03:00.445Z,6.77
2023-03-01T21:05:33.102Z,6.80
2023-03-01T21:08:06.010Z,6.79
2023-03-01T21:10:40.321Z,6.78
2023-03-01T21:13:12.974Z,6.77
2023-03-01T21:15:52.988Z,6.78
2023-03-01T21:18:30.170Z,6.76
2023-03-01T21:21:04.324Z,6.76
2023-03-01T21:23:38.214Z,6.77
2023-03-01T21:26:13.268Z,6.77
2023-03-01T21:28:45.989Z,6.78
2023-03-01T21:31:19.617Z,6.78
2023-03-01T21:33:54.576Z,6.79
2023-03-01T21:36:28.756Z,6.79
2023-03-01T21:39:02.592Z,6.80
2023-03-01T21:41:37.820Z,6.83
2023-03-01T21:44:10.497Z,6.85
2023-03-01T21:46:43.442Z,6.86
2023-03-01T21:49:16.276Z,6.87
2023-03-01T21:51:49.285Z,6.87
2023-03-01T21:54:22.483Z,6.89
2023-03-01T21:56:56.519Z,6.89
2023-03-01T21:59:29.361Z,6.89
2023-03-01T22:02:02.045Z,6.89
2023-03-01T22:04:34.816Z,6.88
2023-03-01T22:07:08.025Z,6.88
2023-03-01T22:09:40.873Z,6.87
2023-03-01T22:12:14.900Z,6.87
2023-03-01T22:14:47.696Z,6.87
2023-03-01T22:17:20.354Z,6.86
2023-03-01T22:19:53.040Z,6.85
2023-03-01T22:22:25.732Z,6.83
2023-03-01T22:24:58.468Z,6.83
2023-03-01T22:27:32.569Z,6.81
2023-03-01T22:30:06.229Z,6.79
2023-03-01T22:32:38.958Z,6.77
2023-03-01T22:35:12.083Z,6.77
2023-03-01T22:37:44.789Z,6.76
2023-03-01T22:40:17.541Z,6.75
2023-03-01T22:42:51.853Z,6.74
2023-03-01T22:45:24.572Z,6.74
2023-03-01T22:47:57.298Z,6.75
2023-03-01T22:50:30.105Z,6.74
2023-03-01T22:53:02.910Z,6.76
2023-03-01T22:55:35.681Z,6.77
2023-03-01T22:58:09.811Z,6.78
2023-03-01T23:00:42.583Z,6.78
2023-03-01T23:03:17.381Z,6.81
2023-03-01T23:05:50.111Z,6.82
2023-03-01T23:08:22.812Z,6.85
2023-03-01T23:10:55.512Z,6.88
2023-03-01T23:13:29.531Z,6.88
2023-03-01T23:16:02.367Z,6.91
2023-03-01T23:18:35.257Z,6.91
2023-03-01T23:21:12.652Z,6.94
2023-03-01T23:23:46.688Z,6.94
2023-03-01T23:26:22.367Z,6.94
2023-03-01T23:28:57.492Z,6.96
2023-03-01T23:31:30.298Z,6.96
2023-03-01T23:34:03.067Z,6.95
2023-03-01T23:36:36.329Z,6.99
2023-03-01T23:39:08.983Z,6.98
2023-03-01T23:41:41.674Z,6.97
2023-03-01T23:44:17.838Z,7.00
2023-03-01T23:46:51.173Z,6.98
2023-03-01T23:49:24.845Z,7.00
2023-03-01T23:51:57.529Z,7.00
2023-03-01T23:54:30.265Z,7.00
2023-03-01T23:57:03.135Z,7.01
2023-03-01T23:59:37.168Z,7.02
